createdAt,value
2023-02-03T00:01:55.881Z,8.60
2023-02-03T00:04:28.097Z,8.60
2023-02-03T00:06:58.820Z,8.60
2023-02-03T00:09:27.063Z,8.60
2023-02-03T00:12:08.000Z,8.70
2023-02-03T00:14:46.831Z,8.70
2023-02-03T00:17:27.740Z,8.60
2023-02-03T00:19:55.771Z,8.60
2023-02-03T00:22:26.225Z,8.70
2023-02-03T00:24:54.819Z,8.70
2023-02-03T00:27:33.697Z,8.70
2023-02-03T00:30:08.985Z,8.70
2023-02-03T00:32:51.421Z,8.70
2023-02-03T00:56:45.779Z,8.70
2023-02-03T01:05:13.661Z,8.70
2023-02-03T01:21:32.417Z,8.70
2023-02-03T01:24:12.057Z,8.80
2023-02-03T01:32:05.455Z,8.70
2023-02-03T01:34:39.112Z,8.80
2023-02-03T01:37:17.235Z,8.80
2023-02-03T01:39:46.675Z,8.80
2023-02-03T01:42:19.078Z,8.80
2023-02-03T01:45:01.335Z,8.80
2023-02-03T01:47:37.802Z,8.80
2023-02-03T01:50:21.774Z,8.80
2023-02-03T01:53:25.659Z,8.80
2023-02-03T02:01:31.348Z,8.80
2023-02-03T02:04:11.607Z,8.80
2023-02-03T02:06:50.229Z,8.80
2023-02-03T02:09:37.945Z,8.80
2023-02-03T02:21:24.111Z,8.80
2023-02-03T02:27:06.408Z,8.90
2023-02-03T02:30:14.316Z,8.80
2023-02-03T02:36:06.786Z,8.90
2023-02-03T02:39:21.822Z,8.90
2023-02-03T02:42:01.211Z,8.90
2023-02-03T02:44:52.195Z,8.90
2023-02-03T03:03:40.650Z,8.90
2023-02-03T03:06:30.923Z,9.00
2023-02-03T03:09:11.654Z,9.00
2023-02-03T03:11:52.584Z,8.90
2023-02-03T03:14:32.621Z,9.00
2023-02-03T03:17:04.290Z,8.90
2023-02-03T03:22:41.448Z,8.90
2023-02-03T03:25:29.184Z,8.90
2023-02-03T03:28:10.294Z,8.90
2023-02-03T03:30:41.642Z,8.90
2023-02-03T03:33:23.600Z,9.00
2023-02-03T03:36:01.166Z,9.00
2023-02-03T03:38:47.440Z,9.00
2023-02-03T03:41:24.937Z,9.00
2023-02-03T03:44:05.213Z,9.00
2023-02-03T03:46:43.781Z,9.00
2023-02-03T03:49:25.882Z,9.00
2023-02-03T03:52:11.939Z,9.00
2023-02-03T03:54:49.789Z,9.00
2023-02-03T03:57:33.231Z,9.00
2023-02-03T04:03:16.138Z,9.00
2023-02-03T04:08:42.785Z,9.00
2023-02-03T04:14:03.387Z,9.00
2023-02-03T04:16:44.204Z,8.90
2023-02-03T04:19:19.108Z,9.00
2023-02-03T04:27:05.691Z,9.00
2023-02-03T04:29:52.425Z,9.00
2023-02-03T04:32:31.551Z,9.00
2023-02-03T04:35:08.056Z,9.00
2023-02-03T04:37:46.458Z,9.00
2023-02-03T04:40:19.124Z,9.00
2023-02-03T04:42:52.418Z,9.00
2023-02-03T04:45:29.218Z,9.00
2023-02-03T04:47:57.744Z,9.00
2023-02-03T04:50:33.879Z,9.00
2023-02-03T04:55:55.705Z,9.00
2023-02-03T04:58:24.010Z,9.00
2023-02-03T05:01:15.978Z,9.00
2023-02-03T05:03:46.183Z,9.00
2023-02-03T05:06:18.775Z,9.00
2023-02-03T05:08:47.221Z,9.00
2023-02-03T05:14:05.828Z,9.00
2023-02-03T05:16:54.197Z,9.00
2023-02-03T05:19:34.649Z,9.00
2023-02-03T05:22:06.323Z,9.00
2023-02-03T05:24:34.619Z,9.00
2023-02-03T05:29:49.791Z,9.10
2023-02-03T05:32:28.156Z,9.00
2023-02-03T05:34:59.915Z,9.00
2023-02-03T05:37:38.477Z,9.10
2023-02-03T05:40:53.612Z,9.10
2023-02-03T05:49:00.650Z,9.10
2023-02-03T05:51:43.866Z,9.10
2023-02-03T05:54:22.949Z,9.10
2023-02-03T05:57:05.471Z,9.10
2023-02-03T06:05:06.705Z,9.00
2023-02-03T06:11:03.667Z,8.90
2023-02-03T06:13:34.098Z,8.90
2023-02-03T06:16:07.052Z,8.80
2023-02-03T06:18:35.415Z,8.80
2023-02-03T06:21:30.222Z,8.80
2023-02-03T06:23:58.348Z,8.80
2023-02-03T06:26:34.517Z,8.80
2023-02-03T06:29:02.569Z,8.80
2023-02-03T06:31:32.776Z,8.90
2023-02-03T06:34:03.396Z,8.90
2023-02-03T06:36:35.978Z,9.00
2023-02-03T06:39:04.107Z,9.00
2023-02-03T06:41:35.840Z,9.10
2023-02-03T06:44:04.033Z,9.10
2023-02-03T06:46:38.323Z,9.10
2023-02-03T06:49:09.748Z,9.20
2023-02-03T06:51:42.576Z,9.20
2023-02-03T06:54:12.266Z,9.20
2023-02-03T06:56:54.501Z,9.30
2023-02-03T06:59:28.079Z,9.30
2023-02-03T07:01:56.242Z,9.30
2023-02-03T07:04:24.871Z,9.30
2023-02-03T07:06:54.250Z,9.30
2023-02-03T07:09:31.300Z,9.30
2023-02-03T07:11:59.333Z,9.40
2023-02-03T07:14:31.236Z,9.40
2023-02-03T07:17:01.399Z,9.50
2023-02-03T07:19:41.233Z,9.50
2023-02-03T07:22:20.193Z,9.50
2023-02-03T07:24:54.735Z,9.50
2023-02-03T07:27:43.091Z,9.50
2023-02-03T07:30:27.223Z,9.60
2023-02-03T07:32:56.616Z,9.50
2023-02-03T07:35:28.472Z,9.60
2023-02-03T07:43:21.762Z,9.60
2023-02-03T07:46:09.259Z,9.60
2023-02-03T07:48:51.813Z,9.60
2023-02-03T07:51:52.033Z,9.60
2023-02-03T07:54:55.208Z,9.70
2023-02-03T07:58:23.808Z,9.70
2023-02-03T08:00:48.011Z,9.70
2023-02-03T08:03:16.384Z,9.70
2023-02-03T08:06:27.942Z,9.70
2023-02-03T08:09:15.372Z,9.80
2023-02-03T08:14:58.286Z,9.80
2023-02-03T08:17:43.155Z,9.80
2023-02-03T08:20:22.022Z,9.80
2023-02-03T08:22:55.265Z,9.90
2023-02-03T08:27:03.946Z,9.90
2023-02-03T08:28:58.368Z,9.90
2023-02-03T08:31:26.837Z,10.00
2023-02-03T08:34:03.930Z,9.90
2023-02-03T08:36:44.351Z,9.90
2023-02-03T08:39:34.670Z,9.90
2023-02-03T08:42:28.312Z,9.90
2023-02-03T08:44:56.901Z,10.00
2023-02-03T08:47:46.823Z,10.00
2023-02-03T08:50:16.578Z,10.00
2023-02-03T08:52:56.285Z,10.00
2023-02-03T08:55:30.437Z,10.00
2023-02-03T08:57:59.146Z,10.00
2023-02-03T09:00:33.447Z,10.00
2023-02-03T09:03:01.784Z,10.00
2023-02-03T09:05:38.499Z,10.00
2023-02-03T09:08:16.540Z,10.00
2023-02-03T09:10:55.879Z,10.00
2023-02-03T09:13:23.970Z,9.90
2023-02-03T09:15:56.295Z,9.50
2023-02-03T09:18:24.315Z,9.10
2023-02-03T09:21:01.481Z,8.90
2023-02-03T09:23:29.664Z,8.70
2023-02-03T09:26:03.743Z,8.70
2023-02-03T09:28:31.961Z,8.70
2023-02-03T09:31:02.134Z,8.70
2023-02-03T09:33:30.484Z,8.70
2023-02-03T09:36:07.014Z,8.70
2023-02-03T09:38:35.880Z,8.80
2023-02-03T09:41:12.934Z,8.80
2023-02-03T09:43:46.907Z,8.80
2023-02-03T09:46:20.882Z,8.90
2023-02-03T09:48:57.397Z,9.00
2023-02-03T09:51:41.715Z,9.10
2023-02-03T09:54:23.282Z,9.20
2023-02-03T09:57:03.289Z,9.20
2023-02-03T10:00:02.334Z,9.30
2023-02-03T10:30:34.085Z,10.00
2023-02-03T10:35:59.595Z,10.10
2023-02-03T10:46:43.568Z,10.20
2023-02-03T10:49:21.803Z,10.20
2023-02-03T10:52:27.626Z,10.20
2023-02-03T11:13:04.289Z,10.50
2023-02-03T11:15:38.749Z,10.50
2023-02-03T11:18:36.483Z,10.50
2023-02-03T11:21:17.499Z,10.40
2023-02-03T11:23:59.363Z,10.40
2023-02-03T11:26:49.353Z,10.50
2023-02-03T11:29:23.452Z,10.50
2023-02-03T11:32:03.539Z,10.60
2023-02-03T11:35:15.578Z,10.60
2023-02-03T11:40:53.767Z,10.60
2023-02-03T11:43:24.922Z,10.60
2023-02-03T11:46:23.851Z,10.60
2023-02-03T11:49:10.356Z,10.50
2023-02-03T11:51:48.271Z,10.60
2023-02-03T11:54:30.610Z,10.60
2023-02-03T11:57:30.750Z,10.60
2023-02-03T12:00:22.742Z,10.70
2023-02-03T12:03:31.296Z,10.80
2023-02-03T12:06:51.990Z,10.80
2023-02-03T12:09:50.497Z,10.80
2023-02-03T12:12:36.381Z,10.70
2023-02-03T12:15:50.806Z,10.70
2023-02-03T12:18:34.186Z,10.60
2023-02-03T12:24:38.898Z,10.60
2023-02-03T12:27:44.943Z,10.60
2023-02-03T12:30:35.220Z,10.60
2023-02-03T12:33:25.588Z,10.60
2023-02-03T12:36:21.994Z,10.50
2023-02-03T12:39:04.005Z,10.50
2023-02-03T12:41:36.748Z,10.50
2023-02-03T12:44:30.975Z,10.50
2023-02-03T12:47:21.579Z,10.50
2023-02-03T12:49:54.331Z,10.50
2023-02-03T12:52:41.092Z,10.50
2023-02-03T12:55:29.631Z,10.40
2023-02-03T12:58:03.146Z,10.30
2023-02-03T14:12:45.681Z,9.70
2023-02-03T14:15:25.070Z,9.60
2023-02-03T14:18:00.620Z,9.70
2023-02-03T14:21:07.827Z,9.60
2023-02-03T14:24:07.031Z,9.60
2023-02-03T14:26:50.014Z,9.50
2023-02-03T14:29:52.381Z,9.50
2023-02-03T14:32:54.782Z,9.50
2023-02-03T14:35:31.429Z,9.50
2023-02-03T14:38:08.028Z,9.50
2023-02-03T14:40:47.038Z,9.40
2023-02-03T14:43:36.063Z,9.40
2023-02-03T14:46:33.506Z,9.50
2023-02-03T14:49:18.893Z,9.60
2023-02-03T14:52:08.983Z,9.60
2023-02-03T14:54:54.187Z,9.50
2023-02-03T14:57:36.555Z,9.40
2023-02-03T15:00:07.828Z,9.40
2023-02-03T15:02:36.569Z,9.30
2023-02-03T15:05:40.844Z,9.30
2023-02-03T15:08:40.519Z,9.30
2023-02-03T15:11:27.728Z,9.30
2023-02-03T15:14:19.311Z,9.20
2023-02-03T15:16:59.642Z,9.20
2023-02-03T15:19:30.325Z,9.20
2023-02-03T15:22:14.730Z,9.20
2023-02-03T15:24:48.498Z,9.10
2023-02-03T15:27:29.086Z,9.10
2023-02-03T15:29:58.988Z,9.10
2023-02-03T15:32:33.692Z,9.10
2023-02-03T15:35:07.232Z,9.10
2023-02-03T15:37:44.033Z,9.10
2023-02-03T15:40:16.118Z,9.00
2023-02-03T15:42:54.246Z,9.00
2023-02-03T15:45:33.172Z,9.00
2023-02-03T15:48:04.279Z,8.90
2023-02-03T15:50:37.676Z,8.90
2023-02-03T15:53:19.104Z,8.90
2023-02-03T15:55:56.677Z,8.90
2023-02-03T15:58:29.346Z,8.90
2023-02-03T16:01:04.453Z,8.90
2023-02-03T16:03:42.302Z,8.90
2023-02-03T16:06:25.631Z,8.90
2023-02-03T16:08:55.893Z,8.80
2023-02-03T16:11:33.193Z,8.80
2023-02-03T16:14:03.683Z,8.80
2023-02-03T16:16:39.020Z,8.80
2023-02-03T16:19:14.207Z,8.80
2023-02-03T16:21:55.159Z,8.80
2023-02-03T16:24:38.780Z,8.80
2023-02-03T16:27:37.031Z,8.80
2023-02-03T16:30:41.896Z,8.80
2023-02-03T16:33:35.076Z,8.80
2023-02-03T16:36:28.710Z,8.80
2023-02-03T16:39:14.508Z,8.80
2023-02-03T16:42:01.826Z,8.70
2023-02-03T16:44:47.179Z,8.70
2023-02-03T16:47:42.562Z,8.70
2023-02-03T16:50:38.267Z,8.70
2023-02-03T16:53:07.296Z,8.60
2023-02-03T16:55:36.793Z,8.60
2023-02-03T16:58:06.164Z,8.60
2023-02-03T17:00:34.284Z,8.60
2023-02-03T17:03:05.808Z,8.60
2023-02-03T17:05:48.751Z,8.70
2023-02-03T17:08:22.041Z,8.60
2023-02-03T17:10:50.398Z,8.60
2023-02-03T17:13:21.893Z,8.60
2023-02-03T17:15:52.647Z,8.60
2023-02-03T17:18:21.483Z,8.60
2023-02-03T17:20:49.789Z,8.60
2023-02-03T17:23:18.342Z,8.60
2023-02-03T17:28:40.271Z,8.60
2023-02-03T17:31:10.166Z,8.50
2023-02-03T17:33:42.827Z,8.50
2023-02-03T17:36:15.431Z,8.50
2023-02-03T17:55:23.662Z,8.50
2023-02-03T17:57:51.692Z,8.50
2023-02-03T18:00:32.673Z,8.40
2023-02-03T18:03:09.798Z,8.40
2023-02-03T18:05:38.957Z,8.40
2023-02-03T18:08:16.172Z,8.40
2023-02-03T18:10:46.340Z,8.40
2023-02-03T18:13:14.300Z,8.40
2023-02-03T18:15:43.641Z,8.40
2023-02-03T18:18:23.238Z,8.40
2023-02-03T18:20:57.286Z,8.40
2023-02-03T18:23:26.899Z,8.30
2023-02-03T18:25:59.848Z,8.20
2023-02-03T18:28:28.463Z,8.20
2023-02-03T18:31:02.176Z,8.20
2023-02-03T18:33:30.311Z,8.10
2023-02-03T18:35:59.923Z,8.00
2023-02-03T18:38:33.425Z,8.00
2023-02-03T18:41:05.865Z,7.90
2023-02-03T18:43:33.901Z,7.90
2023-02-03T18:46:07.215Z,7.90
2023-02-03T18:48:35.251Z,7.90
2023-02-03T18:51:03.413Z,7.90
2023-02-03T18:53:32.692Z,7.90
2023-02-03T18:56:00.622Z,8.00
2023-02-03T18:58:33.944Z,8.00
2023-02-03T19:01:03.347Z,8.00
2023-02-03T19:03:39.621Z,8.00
2023-02-03T19:06:14.339Z,8.00
2023-02-03T19:08:42.399Z,8.00
2023-02-03T19:11:16.481Z,8.00
2023-02-03T19:13:44.841Z,8.00
2023-02-03T19:16:17.986Z,8.00
2023-02-03T19:18:46.379Z,8.00
2023-02-03T19:21:14.893Z,8.00
2023-02-03T19:23:43.364Z,8.00
2023-02-03T19:26:12.120Z,8.00
2023-02-03T19:28:41.913Z,8.00
2023-02-03T19:31:13.341Z,8.10
2023-02-03T19:45:44.076Z,8.10
2023-02-03T19:48:21.271Z,8.20
2023-02-03T19:50:52.334Z,8.20
2023-02-03T19:53:21.735Z,8.10
2023-02-03T19:55:52.350Z,8.10
2023-02-03T19:58:23.480Z,8.10
2023-02-03T20:00:54.179Z,8.10
2023-02-03T20:03:22.849Z,8.20
2023-02-03T20:05:54.272Z,8.10
2023-02-03T20:08:22.200Z,8.00
2023-02-03T20:10:50.585Z,8.00
2023-02-03T20:13:27.511Z,8.00
2023-02-03T20:15:58.581Z,8.00
2023-02-03T20:18:26.590Z,8.00
2023-02-03T20:20:58.359Z,8.10
2023-02-03T20:23:26.698Z,8.00
2023-02-03T20:25:55.531Z,8.00
2023-02-03T20:28:25.550Z,8.00
2023-02-03T20:30:57.345Z,8.00
2023-02-03T20:33:27.735Z,8.00
2023-02-03T20:35:56.313Z,8.00
2023-02-03T20:38:32.003Z,8.00
2023-02-03T20:41:00.147Z,8.00
2023-02-03T20:43:31.345Z,8.10
2023-02-03T20:46:00.812Z,8.10
2023-02-03T20:48:28.896Z,8.10
2023-02-03T20:50:57.058Z,8.00
2023-02-03T20:53:26.843Z,8.10
2023-02-03T20:56:01.421Z,8.10
2023-02-03T20:58:36.827Z,8.10
2023-02-03T21:01:14.671Z,8.00
2023-02-03T21:04:00.799Z,8.00
2023-02-03T21:06:30.228Z,8.00
2023-02-03T21:09:02.982Z,8.00
2023-02-03T21:11:31.509Z,7.90
2023-02-03T21:13:59.894Z,7.90
2023-02-03T21:16:36.458Z,7.80
2023-02-03T21:23:38.903Z,7.70
2023-02-03T21:26:20.788Z,7.70
2023-02-03T21:28:53.158Z,7.80
2023-02-03T21:31:26.098Z,7.70
2023-02-03T21:33:57.315Z,7.70
2023-02-03T21:36:28.913Z,7.70
2023-02-03T21:38:59.768Z,7.70
2023-02-03T21:41:33.044Z,7.70
2023-02-03T21:44:01.512Z,7.70
2023-02-03T21:46:33.041Z,7.80
2023-02-03T21:49:03.899Z,7.80
2023-02-03T21:51:34.878Z,7.70
2023-02-03T21:54:04.956Z,7.70
2023-02-03T21:56:39.428Z,7.70
2023-02-03T21:59:18.976Z,7.70
2023-02-03T22:01:47.149Z,7.70
2023-02-03T22:04:16.531Z,7.70
2023-02-03T22:06:51.955Z,7.70
2023-02-03T22:09:23.762Z,7.70
2023-02-03T22:11:52.637Z,7.70
2023-02-03T22:14:21.735Z,7.60
2023-02-03T22:16:50.141Z,7.70
2023-02-03T22:19:19.591Z,7.70
2023-02-03T22:21:49.691Z,7.70
2023-02-03T22:24:17.668Z,7.70
2023-02-03T22:26:45.676Z,7.70
2023-02-03T22:29:13.623Z,7.70
2023-02-03T22:31:42.730Z,7.70
2023-02-03T22:34:11.015Z,7.70
2023-02-03T22:36:40.466Z,7.70
2023-02-03T22:39:08.402Z,7.70
2023-02-03T22:41:37.394Z,7.70
2023-02-03T22:44:05.659Z,7.70
2023-02-03T22:46:38.040Z,7.70
2023-02-03T22:49:06.086Z,7.70
2023-02-03T22:51:34.048Z,7.80
2023-02-03T22:54:05.923Z,7.80
2023-02-03T22:56:33.965Z,7.70
2023-02-03T22:59:03.203Z,7.60
2023-02-03T23:01:31.211Z,7.40
2023-02-03T23:03:59.287Z,7.30
2023-02-03T23:06:27.255Z,7.30
2023-02-03T23:08:55.486Z,7.30
2023-02-03T23:11:26.071Z,7.20
2023-02-03T23:13:54.148Z,7.20
2023-02-03T23:16:22.122Z,7.20
2023-02-03T23:18:51.874Z,7.10
2023-02-03T23:21:19.834Z,7.10
2023-02-03T23:23:47.787Z,7.10
2023-02-03T23:26:15.874Z,7.00
2023-02-03T23:28:45.239Z,7.00
2023-02-03T23:31:15.173Z,6.90
2023-02-03T23:34:04.022Z,6.80
2023-02-03T23:36:31.303Z,6.80
2023-02-03T23:38:59.462Z,6.80
2023-02-03T23:41:27.536Z,6.70
2023-02-03T23:43:56.853Z,6.70
2023-02-03T23:46:25.082Z,6.60
2023-02-03T23:48:53.571Z,6.60
2023-02-03T23:51:24.377Z,6.60
2023-02-03T23:53:52.309Z,6.60
2023-02-03T23:56:20.295Z,6.50
2023-02-03T23:58:50.155Z,6.50
